createdAt,value
2019-03-05T00:01:52.341Z,95680.28
2019-03-05T00:04:21.456Z,95682.41
2019-03-05T00:06:50.520Z,95682.38
2019-03-05T00:09:23.630Z,95674.91
2019-03-05T00:11:52.800Z,95681.05
2019-03-05T00:14:23.755Z,95675.62
2019-03-05T00:16:52.833Z,95682.27
2019-03-05T00:19:21.925Z,95679.61
2019-03-05T00:21:51.010Z,95671.64
2019-03-05T00:24:55.634Z,95686.25
2019-03-05T00:27:24.741Z,95669.77
2019-03-05T00:30:26.365Z,95678.78
2019-03-05T00:32:59.439Z,95680.94
2019-03-05T00:36:04.622Z,95684.33
2019-03-05T00:39:17.611Z,95689.30
2019-03-05T00:42:20.343Z,95690.34
2019-03-05T00:45:14.028Z,95697.67
2019-03-05T00:47:55.434Z,95690.84
2019-03-05T00:51:03.037Z,95693.22
2019-03-05T00:54:11.782Z,95686.53
2019-03-05T00:56:59.128Z,95698.24
2019-03-05T00:59:54.462Z,95671.69
2019-03-05T01:02:45.834Z,95685.41
2019-03-05T01:06:09.726Z,95685.83
2019-03-05T01:08:38.808Z,95690.17
2019-03-05T01:11:08.282Z,95696.09
2019-03-05T01:13:37.359Z,95701.19
2019-03-05T01:16:06.638Z,95695.14
2019-03-05T01:18:35.714Z,95701.41
2019-03-05T01:21:04.818Z,95697.67
2019-03-05T01:23:33.898Z,95700.14
2019-03-05T01:26:03.000Z,95698.02
2019-03-05T01:28:32.114Z,95701.52
2019-03-05T01:31:32.555Z,95701.72
2019-03-05T01:34:09.174Z,95698.00
2019-03-05T01:36:41.794Z,95700.20
2019-03-05T01:39:25.574Z,95695.14
2019-03-05T01:41:54.666Z,95704.48
2019-03-05T01:44:23.732Z,95709.69
2019-03-05T01:46:52.829Z,95699.67
2019-03-05T01:49:21.901Z,95703.45
2019-03-05T01:51:51.006Z,95705.91
2019-03-05T01:54:20.084Z,95703.79
2019-03-05T01:56:49.176Z,95699.52
2019-03-05T01:59:18.244Z,95694.48
2019-03-05T02:01:47.344Z,95698.42
2019-03-05T02:04:16.435Z,95697.60
2019-03-05T02:06:45.545Z,95695.48
2019-03-05T02:09:14.726Z,95708.77
2019-03-05T02:11:44.098Z,95695.13
2019-03-05T02:14:13.196Z,95693.39
2019-03-05T02:16:42.276Z,95697.03
2019-03-05T02:19:47.968Z,95704.25
2019-03-05T02:22:37.397Z,95712.50
2019-03-05T02:25:46.019Z,95708.05
2019-03-05T02:28:59.240Z,95693.22
2019-03-05T02:32:09.484Z,95712.09
2019-03-05T02:35:00.048Z,95706.51
2019-03-05T02:38:05.620Z,95704.31
2019-03-05T02:41:20.486Z,95701.41
2019-03-05T02:44:51.228Z,95698.40
2019-03-05T02:47:43.430Z,95698.52
2019-03-05T02:50:53.828Z,95695.23
2019-03-05T02:53:59.782Z,95701.64
2019-03-05T02:56:51.917Z,95699.28
2019-03-05T02:59:21.529Z,95693.69
2019-03-05T03:02:12.348Z,95680.41
2019-03-05T03:04:44.290Z,95685.83
2019-03-05T03:07:13.367Z,95679.41
2019-03-05T03:10:14.879Z,95690.44
2019-03-05T03:12:44.491Z,95681.60
2019-03-05T03:15:17.712Z,95682.62
2019-03-05T03:17:47.172Z,95679.91
2019-03-05T03:20:17.832Z,95676.36
2019-03-05T03:22:46.989Z,95683.17
2019-03-05T03:25:20.277Z,95692.74
2019-03-05T03:27:49.438Z,95707.27
2019-03-05T03:30:21.636Z,95688.15
2019-03-05T03:32:50.859Z,95714.91
2019-03-05T03:35:20.033Z,95711.63
2019-03-05T03:37:49.108Z,95712.50
2019-03-05T03:40:20.049Z,95713.64
2019-03-05T03:42:49.259Z,95712.23
2019-03-05T03:45:20.330Z,95729.27
2019-03-05T03:47:49.450Z,95721.38
2019-03-05T03:50:18.507Z,95721.16
2019-03-05T03:52:47.597Z,95728.13
2019-03-05T03:55:16.825Z,95719.98
2019-03-05T03:57:45.921Z,95723.64
2019-03-05T04:00:20.125Z,95731.65
2019-03-05T04:02:49.249Z,95719.42
2019-03-05T04:05:18.458Z,95730.86
2019-03-05T04:07:47.555Z,95733.72
2019-03-05T04:10:16.661Z,95732.47
2019-03-05T04:12:45.764Z,95730.80
2019-03-05T04:15:16.530Z,95743.88
2019-03-05T04:17:45.627Z,95732.41
2019-03-05T04:20:18.753Z,95740.02
2019-03-05T04:22:47.852Z,95727.89
2019-03-05T04:25:16.922Z,95730.73
2019-03-05T04:27:46.109Z,95730.45
2019-03-05T04:30:15.219Z,95723.34
2019-03-05T04:32:44.309Z,95735.34
2019-03-05T04:35:13.395Z,95717.57
2019-03-05T04:37:42.490Z,95729.47
2019-03-05T04:40:12.094Z,95734.26
2019-03-05T04:42:41.192Z,95729.00
2019-03-05T04:45:34.677Z,95735.28
2019-03-05T04:48:03.784Z,95729.75
2019-03-05T04:50:51.827Z,95729.75
2019-03-05T04:53:20.913Z,95737.18
2019-03-05T04:55:49.990Z,95731.89
2019-03-05T04:58:19.082Z,95737.72
2019-03-05T05:00:48.258Z,95730.56
2019-03-05T05:03:17.389Z,95733.10
2019-03-05T05:05:46.480Z,95723.27
2019-03-05T05:08:15.573Z,95729.34
2019-03-05T05:10:44.646Z,95731.59
2019-03-05T05:13:13.743Z,95736.02
2019-03-05T05:15:42.815Z,95733.60
2019-03-05T05:18:11.908Z,95728.06
2019-03-05T05:20:40.982Z,95742.14
2019-03-05T05:23:10.060Z,95730.49
2019-03-05T05:25:39.155Z,95727.02
2019-03-05T05:28:08.253Z,95725.69
2019-03-05T05:30:38.556Z,95738.17
2019-03-05T05:33:07.668Z,95732.63
2019-03-05T05:35:36.766Z,95735.22
2019-03-05T05:38:05.994Z,95733.60
2019-03-05T05:40:39.201Z,95735.22
2019-03-05T05:43:11.023Z,95727.25
2019-03-05T05:45:47.477Z,95734.64
2019-03-05T05:48:16.545Z,95727.72
2019-03-05T05:50:45.645Z,95724.08
2019-03-05T05:53:14.730Z,95729.34
2019-03-05T05:55:43.917Z,95721.81
2019-03-05T05:58:12.994Z,95716.05
2019-03-05T06:00:44.318Z,95721.94
2019-03-05T06:03:13.384Z,95724.88
2019-03-05T06:05:42.483Z,95720.56
2019-03-05T06:08:11.561Z,95728.01
2019-03-05T06:10:40.740Z,95729.55
2019-03-05T06:13:09.818Z,95719.77
2019-03-05T06:15:38.925Z,95723.27
2019-03-05T06:18:07.991Z,95727.27
2019-03-05T06:20:37.085Z,95727.48
2019-03-05T06:23:06.157Z,95722.42
2019-03-05T06:25:35.261Z,95730.95
2019-03-05T06:28:04.352Z,95720.92
2019-03-05T06:30:33.972Z,95726.97
2019-03-05T06:33:03.069Z,95729.34
2019-03-05T06:35:32.164Z,95728.06
2019-03-05T06:38:01.238Z,95724.25
2019-03-05T06:40:30.485Z,95731.45
2019-03-05T06:42:59.563Z,95729.62
2019-03-05T06:45:28.637Z,95721.94
2019-03-05T06:47:57.753Z,95727.55
2019-03-05T06:50:26.866Z,95707.30
2019-03-05T06:52:55.941Z,95712.40
2019-03-05T06:55:25.021Z,95703.11
2019-03-05T06:57:54.117Z,95711.92
2019-03-05T07:00:40.254Z,95701.72
2019-03-05T07:03:09.691Z,95684.80
2019-03-05T07:06:14.007Z,95704.38
2019-03-05T07:08:46.678Z,95704.59
2019-03-05T07:12:09.011Z,95694.78
2019-03-05T07:15:26.809Z,95694.03
2019-03-05T07:18:04.199Z,95684.44
2019-03-05T07:21:16.681Z,95701.59
2019-03-05T07:24:26.995Z,95699.28
2019-03-05T07:26:56.089Z,95705.41
2019-03-05T07:29:25.215Z,95714.00
2019-03-05T07:31:54.305Z,95711.81
2019-03-05T07:34:26.894Z,95720.89
2019-03-05T07:36:55.990Z,95719.14
2019-03-05T07:39:25.109Z,95728.83
2019-03-05T07:41:54.223Z,95719.02
2019-03-05T07:44:23.301Z,95711.27
2019-03-05T07:46:52.385Z,95716.20
2019-03-05T07:49:21.471Z,95722.40
2019-03-05T07:51:50.825Z,95725.10
2019-03-05T07:54:19.922Z,95723.34
2019-03-05T07:56:48.997Z,95724.86
2019-03-05T07:59:18.084Z,95719.93
2019-03-05T08:01:47.163Z,95738.19
2019-03-05T08:04:16.262Z,95720.11
2019-03-05T08:06:45.564Z,95738.50
2019-03-05T08:09:33.167Z,95734.52
2019-03-05T08:12:41.825Z,95732.19
2019-03-05T08:15:30.654Z,95739.75
2019-03-05T08:17:59.758Z,95741.66
2019-03-05T08:20:28.839Z,95737.16
2019-03-05T08:22:57.930Z,95746.09
2019-03-05T08:25:27.010Z,95754.30
2019-03-05T08:27:56.108Z,95750.31
2019-03-05T08:30:25.209Z,95746.73
2019-03-05T08:32:54.279Z,95752.92
2019-03-05T08:35:23.379Z,95740.29
2019-03-05T08:37:52.470Z,95744.61
2019-03-05T08:40:21.546Z,95745.36
2019-03-05T08:42:50.624Z,95750.17
2019-03-05T08:45:28.794Z,95753.90
2019-03-05T08:47:50.509Z,95760.80
2019-03-05T08:50:19.605Z,95762.73
2019-03-05T08:52:48.676Z,95769.16
2019-03-05T08:55:17.770Z,95757.53
2019-03-05T08:57:46.845Z,95773.78
2019-03-05T09:00:17.190Z,95760.38
2019-03-05T09:02:48.879Z,95767.18
2019-03-05T09:05:17.837Z,95766.80
2019-03-05T09:07:46.924Z,95775.50
2019-03-05T09:10:16.476Z,95771.17
2019-03-05T09:12:45.659Z,95789.42
2019-03-05T09:15:16.137Z,95786.08
2019-03-05T09:17:45.422Z,95792.02
2019-03-05T09:20:15.769Z,95791.92
2019-03-05T09:22:44.813Z,95790.75
2019-03-05T09:25:14.675Z,95793.70
2019-03-05T09:27:44.073Z,95792.65
2019-03-05T09:30:15.969Z,95795.89
2019-03-05T09:32:45.046Z,95793.98
2019-03-05T09:35:14.181Z,95796.58
2019-03-05T09:37:43.258Z,95794.86
2019-03-05T09:40:17.477Z,95784.91
2019-03-05T09:42:46.662Z,95781.73
2019-03-05T09:45:16.943Z,95789.95
2019-03-05T09:47:46.009Z,95789.20
2019-03-05T09:50:16.133Z,95803.19
2019-03-05T09:52:54.380Z,95801.73
2019-03-05T09:55:18.093Z,95796.93
2019-03-05T09:57:49.203Z,95799.98
2019-03-05T10:00:19.534Z,95803.91
2019-03-05T10:02:48.628Z,95821.51
2019-03-05T10:05:17.733Z,95818.14
2019-03-05T10:07:46.931Z,95816.76
2019-03-05T10:10:18.969Z,95812.55
2019-03-05T10:12:48.186Z,95828.03
2019-03-05T10:15:18.658Z,95828.84
2019-03-05T10:17:49.865Z,95826.42
2019-03-05T10:20:20.026Z,95828.25
2019-03-05T10:22:49.761Z,95839.47
2019-03-05T10:25:20.081Z,95844.33
2019-03-05T10:27:49.357Z,95853.05
2019-03-05T10:30:24.689Z,95864.00
2019-03-05T10:32:54.665Z,95867.83
2019-03-05T10:35:25.449Z,95863.38
2019-03-05T10:37:56.043Z,95858.47
2019-03-05T10:40:26.826Z,95851.94
2019-03-05T10:43:07.807Z,95852.05
2019-03-05T10:45:27.906Z,95840.26
2019-03-05T10:47:57.014Z,95847.30
2019-03-05T10:50:26.994Z,95855.95
2019-03-05T10:52:56.169Z,95850.66
2019-03-05T10:55:26.523Z,95843.73
2019-03-05T10:57:55.765Z,95851.00
2019-03-05T11:00:30.900Z,95846.02
2019-03-05T11:03:00.026Z,95859.47
2019-03-05T11:05:31.860Z,95859.38
2019-03-05T11:08:00.966Z,95861.03
2019-03-05T11:10:30.985Z,95864.03
2019-03-05T11:13:01.189Z,95852.00
2019-03-05T11:15:30.548Z,95858.89
2019-03-05T11:17:59.978Z,95863.66
2019-03-05T11:20:29.070Z,95875.72
2019-03-05T11:22:58.173Z,95870.39
2019-03-05T11:25:27.249Z,95866.92
2019-03-05T11:27:56.354Z,95872.45
2019-03-05T11:30:35.579Z,95889.45
2019-03-05T11:32:57.087Z,95888.13
2019-03-05T11:35:27.283Z,95888.51
2019-03-05T11:37:56.359Z,95880.88
2019-03-05T11:40:25.649Z,95891.06
2019-03-05T11:42:54.786Z,95896.45
2019-03-05T11:45:25.554Z,95897.84
2019-03-05T11:47:54.949Z,95903.50
2019-03-05T11:50:24.773Z,95906.80
2019-03-05T11:52:54.314Z,95905.41
2019-03-05T11:55:23.529Z,95906.66
2019-03-05T11:57:52.606Z,95888.08
2019-03-05T12:00:37.821Z,95899.91
2019-03-05T12:03:07.119Z,95908.14
2019-03-05T12:05:36.328Z,95910.28
2019-03-05T12:08:05.523Z,95915.79
2019-03-05T12:10:34.623Z,95920.49
2019-03-05T12:13:03.708Z,95922.63
2019-03-05T12:15:32.833Z,95917.83
2019-03-05T12:18:01.914Z,95926.93
2019-03-05T12:20:31.013Z,95932.59
2019-03-05T12:23:02.235Z,95923.69
2019-03-05T12:25:30.918Z,95928.38
2019-03-05T12:28:09.728Z,95932.56
2019-03-05T12:30:30.864Z,95939.80
2019-03-05T12:32:59.938Z,95946.77
2019-03-05T12:35:29.036Z,95946.72
2019-03-05T12:37:58.108Z,95953.01
2019-03-05T12:40:27.232Z,95954.62
2019-03-05T12:42:56.514Z,95941.80
2019-03-05T12:45:25.713Z,95941.27
2019-03-05T12:47:54.788Z,95947.97
2019-03-05T12:50:23.972Z,95954.11
2019-03-05T12:52:53.558Z,95947.04
2019-03-05T12:55:23.551Z,95946.88
2019-03-05T12:57:52.743Z,95945.45
2019-03-05T13:00:22.789Z,95945.63
2019-03-05T13:02:51.906Z,95936.70
2019-03-05T13:05:21.101Z,95945.66
2019-03-05T13:07:52.581Z,95958.94
2019-03-05T13:10:21.802Z,95949.13
2019-03-05T13:12:50.879Z,95956.20
2019-03-05T13:15:22.452Z,95966.09
2019-03-05T13:17:52.741Z,95962.73
2019-03-05T13:20:22.596Z,95959.19
2019-03-05T13:22:52.718Z,95961.28
2019-03-05T13:25:24.265Z,95961.95
2019-03-05T13:27:52.872Z,95964.62
2019-03-05T13:30:25.902Z,95979.85
2019-03-05T13:32:54.017Z,95981.82
2019-03-05T13:35:25.446Z,95975.73
2019-03-05T13:37:54.818Z,95970.52
2019-03-05T13:40:25.392Z,95976.56
2019-03-05T13:42:54.492Z,95975.41
2019-03-05T13:45:24.620Z,95963.48
2019-03-05T13:48:20.517Z,95979.97
2019-03-05T13:51:47.370Z,95982.94
2019-03-05T13:54:48.563Z,95975.13
2019-03-05T13:57:55.125Z,95984.37
2019-03-05T14:00:24.220Z,95973.02
2019-03-05T14:03:01.360Z,95979.36
2019-03-05T14:06:05.907Z,95979.59
2019-03-05T14:09:20.890Z,95990.55
2019-03-05T14:11:53.442Z,95986.47
2019-03-05T14:14:27.131Z,95987.78
2019-03-05T14:17:01.251Z,96010.36
2019-03-05T14:19:30.328Z,96018.57
2019-03-05T14:21:59.441Z,96025.70
2019-03-05T14:24:28.617Z,96031.67
2019-03-05T14:26:57.809Z,96034.03
2019-03-05T14:29:29.272Z,96029.89
2019-03-05T14:31:57.743Z,96030.86
2019-03-05T14:34:26.844Z,96028.42
2019-03-05T14:36:56.020Z,96040.42
2019-03-05T14:39:31.819Z,96037.80
2019-03-05T14:42:01.837Z,96036.78
2019-03-05T14:44:39.410Z,96042.76
2019-03-05T14:47:03.054Z,96037.87
2019-03-05T14:49:32.250Z,96034.50
2019-03-05T14:52:01.329Z,96038.00
2019-03-05T14:54:30.428Z,96034.41
2019-03-05T14:56:59.494Z,96043.92
2019-03-05T14:59:28.625Z,96039.48
2019-03-05T15:01:57.706Z,96038.95
2019-03-05T15:04:26.812Z,96031.58
2019-03-05T15:06:55.910Z,96040.30
2019-03-05T15:09:25.057Z,96038.69
2019-03-05T15:11:54.149Z,96046.08
2019-03-05T15:14:23.237Z,96040.90
2019-03-05T15:16:52.294Z,96038.83
2019-03-05T15:19:21.981Z,96037.69
2019-03-05T15:21:51.130Z,96040.23
2019-03-05T15:24:20.229Z,96048.80
2019-03-05T15:26:49.335Z,96055.23
2019-03-05T15:29:18.441Z,96054.90
2019-03-05T15:31:47.533Z,96052.03
2019-03-05T15:34:16.645Z,96054.41
2019-03-05T15:36:45.706Z,96056.95
2019-03-05T15:39:15.018Z,96055.19
2019-03-05T15:41:45.894Z,96061.13
2019-03-05T15:44:14.869Z,96048.88
2019-03-05T15:46:44.000Z,96049.33
2019-03-05T15:49:13.057Z,96056.23
2019-03-05T15:51:42.182Z,96049.25
2019-03-05T15:54:11.240Z,96046.52
2019-03-05T15:56:40.365Z,96043.67
2019-03-05T15:59:09.448Z,96045.27
2019-03-05T16:01:38.546Z,96053.37
2019-03-05T16:04:07.622Z,96048.51
2019-03-05T16:06:36.718Z,96043.45
2019-03-05T16:09:16.453Z,96061.39
2019-03-05T16:11:45.550Z,96060.55
2019-03-05T16:14:14.629Z,96059.25
2019-03-05T16:16:43.728Z,96059.98
2019-03-05T16:19:16.558Z,96067.06
2019-03-05T16:21:43.631Z,96078.54
2019-03-05T16:24:12.701Z,96074.69
2019-03-05T16:26:41.818Z,96079.82
2019-03-05T16:29:10.997Z,96083.06
2019-03-05T16:31:59.057Z,96084.59
2019-03-05T16:34:50.297Z,96086.62
2019-03-05T16:37:28.226Z,96088.09
2019-03-05T16:40:05.120Z,96086.42
2019-03-05T16:43:01.316Z,96087.42
2019-03-05T16:45:37.126Z,96090.75
2019-03-05T16:48:12.975Z,96096.31
2019-03-05T16:51:01.019Z,96098.09
2019-03-05T16:53:49.092Z,96099.64
2019-03-05T16:56:30.276Z,96101.69
2019-03-05T16:59:16.815Z,96107.70
2019-03-05T17:02:02.714Z,96113.30
2019-03-05T17:04:43.506Z,96116.44
2019-03-05T17:07:34.448Z,96121.37
2019-03-05T17:10:21.206Z,96126.16
2019-03-05T17:12:50.307Z,96121.30
2019-03-05T17:15:19.572Z,96125.23
2019-03-05T17:17:48.716Z,96132.52
2019-03-05T17:20:17.745Z,96133.48
2019-03-05T17:22:46.843Z,96132.58
2019-03-05T17:25:16.897Z,96144.63
2019-03-05T17:27:46.012Z,96144.63
2019-03-05T17:30:15.976Z,96147.21
2019-03-05T17:32:45.106Z,96152.06
2019-03-05T17:35:14.711Z,96147.91
2019-03-05T17:37:43.837Z,96144.30
2019-03-05T17:40:13.545Z,96157.98
2019-03-05T17:42:42.619Z,96166.22
2019-03-05T17:45:14.589Z,96171.55
2019-03-05T17:47:43.671Z,96173.19
2019-03-05T17:50:13.016Z,96179.31
2019-03-05T17:52:42.097Z,96179.31
2019-03-05T17:55:13.571Z,96173.16
2019-03-05T17:57:42.642Z,96177.81
2019-03-05T18:00:15.094Z,96178.30
2019-03-05T18:02:44.176Z,96188.84
2019-03-05T18:05:13.569Z,96198.59
2019-03-05T18:07:42.645Z,96208.91
2019-03-05T18:10:11.891Z,96209.03
2019-03-05T18:12:41.151Z,96215.77
2019-03-05T18:15:10.601Z,96232.00
2019-03-05T18:17:39.717Z,96216.29
2019-03-05T18:20:10.111Z,96209.03
2019-03-05T18:22:39.185Z,96215.70
2019-03-05T18:25:08.953Z,96216.94
2019-03-05T18:27:38.044Z,96227.69
2019-03-05T18:30:10.213Z,96229.72
2019-03-05T18:32:39.285Z,96238.15
2019-03-05T18:35:08.960Z,96243.60
2019-03-05T18:37:38.861Z,96237.79
2019-03-05T18:40:10.181Z,96240.50
2019-03-05T18:42:39.509Z,96238.10
2019-03-05T18:45:11.941Z,96240.94
2019-03-05T18:47:41.055Z,96247.55
2019-03-05T18:50:10.724Z,96247.37
2019-03-05T18:52:39.833Z,96258.91
2019-03-05T18:55:09.645Z,96258.28
2019-03-05T18:57:38.733Z,96261.16
2019-03-05T19:00:09.878Z,96279.22
2019-03-05T19:02:38.972Z,96280.42
2019-03-05T19:05:08.568Z,96278.03
2019-03-05T19:07:37.645Z,96281.25
2019-03-05T19:10:10.560Z,96275.41
2019-03-05T19:12:40.400Z,96271.50
2019-03-05T19:15:11.567Z,96269.43
2019-03-05T19:17:41.747Z,96273.12
2019-03-05T19:20:13.164Z,96268.55
2019-03-05T19:22:43.225Z,96268.65
2019-03-05T19:25:17.597Z,96272.34
2019-03-05T19:27:47.926Z,96274.02
2019-03-05T19:30:22.568Z,96277.00
2019-03-05T19:32:53.575Z,96283.25
2019-03-05T19:35:23.834Z,96286.34
2019-03-05T19:37:54.047Z,96285.50
2019-03-05T19:40:25.892Z,96280.86
2019-03-05T19:42:55.995Z,96287.27
2019-03-05T19:45:26.655Z,96285.23
2019-03-05T19:47:56.394Z,96287.71
2019-03-05T19:50:26.223Z,96294.70
2019-03-05T19:52:57.428Z,96296.84
2019-03-05T19:55:27.088Z,96294.74
2019-03-05T19:58:08.233Z,96302.44
2019-03-05T20:00:39.850Z,96301.55
2019-03-05T20:03:10.259Z,96298.56
2019-03-05T20:05:40.183Z,96293.75
2019-03-05T20:08:11.487Z,96296.52
2019-03-05T20:10:41.542Z,96294.05
2019-03-05T20:13:11.891Z,96290.07
2019-03-05T20:15:41.788Z,96289.22
2019-03-05T20:18:12.633Z,96288.94
2019-03-05T20:20:42.625Z,96288.67
2019-03-05T20:23:12.891Z,96285.26
2019-03-05T20:25:42.661Z,96287.35
2019-03-05T20:28:12.366Z,96279.34
2019-03-05T20:30:42.847Z,96283.44
2019-03-05T20:33:12.526Z,96281.00
2019-03-05T20:35:42.341Z,96279.52
2019-03-05T20:38:11.695Z,96279.22
2019-03-05T20:40:42.400Z,96274.94
2019-03-05T20:43:12.040Z,96276.06
2019-03-05T20:45:41.514Z,96276.63
2019-03-05T20:48:11.449Z,96273.80
2019-03-05T20:50:41.084Z,96270.88
2019-03-05T20:53:11.377Z,96269.81
2019-03-05T20:55:40.550Z,96263.70
2019-03-05T20:58:10.519Z,96263.81
2019-03-05T21:00:42.224Z,96278.27
2019-03-05T21:03:11.829Z,96266.69
2019-03-05T21:05:42.197Z,96272.59
2019-03-05T21:08:11.896Z,96268.31
2019-03-05T21:10:42.064Z,96273.33
2019-03-05T21:13:12.415Z,96276.97
2019-03-05T21:15:42.332Z,96275.72
2019-03-05T21:18:12.336Z,96279.56
2019-03-05T21:20:41.711Z,96285.68
2019-03-05T21:23:11.304Z,96287.89
2019-03-05T21:25:41.813Z,96282.22
2019-03-05T21:28:11.920Z,96284.35
2019-03-05T21:30:41.019Z,96287.27
2019-03-05T21:33:10.110Z,96292.69
2019-03-05T21:35:39.366Z,96295.09
2019-03-05T21:38:08.498Z,96295.67
2019-03-05T21:40:37.715Z,96307.33
2019-03-05T21:43:06.818Z,96303.75
2019-03-05T21:45:36.882Z,96293.61
2019-03-05T21:48:06.405Z,96288.67
2019-03-05T21:50:35.478Z,96292.65
2019-03-05T21:53:04.793Z,96283.65
2019-03-05T21:55:33.894Z,96291.61
2019-03-05T21:58:03.001Z,96293.93
2019-03-05T22:00:32.198Z,96291.02
2019-03-05T22:03:01.347Z,96284.55
2019-03-05T22:05:31.137Z,96292.33
2019-03-05T22:08:00.236Z,96290.81
2019-03-05T22:10:29.418Z,96291.59
2019-03-05T22:12:58.513Z,96285.28
2019-03-05T22:15:27.636Z,96295.78
2019-03-05T22:17:56.729Z,96285.50
2019-03-05T22:20:25.802Z,96286.38
2019-03-05T22:22:54.911Z,96285.89
2019-03-05T22:25:24.038Z,96289.27
2019-03-05T22:27:53.215Z,96277.89
2019-03-05T22:30:24.200Z,96277.48
2019-03-05T22:32:53.322Z,96286.75
2019-03-05T22:35:22.716Z,96290.48
2019-03-05T22:37:51.814Z,96286.09
2019-03-05T22:40:20.915Z,96288.27
2019-03-05T22:42:50.031Z,96284.13
2019-03-05T22:45:20.602Z,96279.81
2019-03-05T22:47:49.977Z,96283.55
2019-03-05T22:50:20.067Z,96279.81
2019-03-05T22:52:49.169Z,96282.05
2019-03-05T22:55:18.258Z,96282.21
2019-03-05T22:57:47.378Z,96283.93
2019-03-05T23:00:50.212Z,96279.23
2019-03-05T23:03:20.793Z,96269.98
2019-03-05T23:05:50.149Z,96266.84
2019-03-05T23:08:21.059Z,96263.33
2019-03-05T23:10:50.231Z,96270.17
2019-03-05T23:13:19.571Z,96268.10
2019-03-05T23:15:48.982Z,96265.77
2019-03-05T23:18:18.100Z,96267.88
2019-03-05T23:20:48.194Z,96261.15
2019-03-05T23:23:17.298Z,96265.14
2019-03-05T23:25:46.384Z,96259.91
2019-03-05T23:28:15.503Z,96261.90
2019-03-05T23:30:44.587Z,96257.91
2019-03-05T23:33:13.793Z,96257.59
2019-03-05T23:35:42.875Z,96254.96
2019-03-05T23:38:11.979Z,96243.40
2019-03-05T23:40:41.069Z,96242.81
2019-03-05T23:43:10.155Z,96248.00
2019-03-05T23:45:39.291Z,96248.31
2019-03-05T23:48:08.376Z,96245.05
2019-03-05T23:50:37.997Z,96242.23
2019-03-05T23:53:07.086Z,96238.16
2019-03-05T23:55:36.268Z,96236.75
2019-03-05T23:58:05.351Z,96234.17
